createdAt,value
2018-07-20T00:00:45.543Z,0
2018-07-20T00:01:45.536Z,0
2018-07-20T00:02:45.530Z,0
2018-07-20T00:03:45.777Z,0
2018-07-20T00:04:45.780Z,0
2018-07-20T00:05:45.765Z,0
2018-07-20T00:06:45.769Z,0
2018-07-20T00:07:45.770Z,0
2018-07-20T00:08:45.249Z,0
2018-07-20T00:09:45.492Z,0
2018-07-20T00:10:45.766Z,0
2018-07-20T00:11:45.753Z,0
2018-07-20T00:12:45.736Z,0
2018-07-20T00:13:45.767Z,0
2018-07-20T00:14:45.467Z,0
2018-07-20T00:15:45.460Z,0
2018-07-20T00:16:45.637Z,0
2018-07-20T00:17:45.706Z,0
2018-07-20T00:18:45.458Z,0
2018-07-20T00:19:45.702Z,0
2018-07-20T00:20:45.446Z,0
2018-07-20T00:21:45.683Z,0
2018-07-20T00:22:45.678Z,0
2018-07-20T00:23:45.425Z,0
2018-07-20T00:24:45.681Z,0
2018-07-20T00:25:45.425Z,0
2018-07-20T00:26:45.657Z,0
2018-07-20T00:27:45.166Z,0
2018-07-20T00:28:45.645Z,0
2018-07-20T00:29:45.397Z,0
2018-07-20T00:30:45.389Z,0
2018-07-20T00:31:45.633Z,0
2018-07-20T00:32:45.635Z,0
2018-07-20T00:33:45.621Z,0
2018-07-20T00:34:45.616Z,0
2018-07-20T00:35:45.616Z,0
2018-07-20T00:36:45.618Z,0
2018-07-20T00:37:45.094Z,0
2018-07-20T00:38:45.623Z,0
2018-07-20T00:39:45.591Z,0
2018-07-20T00:40:45.592Z,0
2018-07-20T00:41:45.579Z,0
2018-07-20T00:42:45.575Z,0
2018-07-20T00:43:45.569Z,0
2018-07-20T00:44:45.320Z,0
2018-07-20T00:45:45.563Z,0
2018-07-20T00:46:45.549Z,0
2018-07-20T00:47:45.554Z,0
2018-07-20T00:48:45.329Z,0
2018-07-20T00:49:45.289Z,0
2018-07-20T00:50:45.534Z,0
2018-07-20T00:51:45.277Z,0
2018-07-20T00:52:45.560Z,0
2018-07-20T00:53:45.522Z,0
2018-07-20T00:54:45.513Z,0
2018-07-20T00:55:45.497Z,0
2018-07-20T00:56:45.511Z,0
2018-07-20T00:57:45.571Z,0
2018-07-20T00:58:45.486Z,0
2018-07-20T00:59:45.521Z,0
2018-07-20T01:00:45.481Z,0
2018-07-20T01:01:45.473Z,0
2018-07-20T01:02:45.459Z,0
2018-07-20T01:03:45.206Z,0
2018-07-20T01:04:45.459Z,0
2018-07-20T01:05:45.459Z,0
2018-07-20T01:06:45.188Z,0
2018-07-20T01:07:45.437Z,0
2018-07-20T01:08:45.427Z,0
2018-07-20T01:09:45.174Z,0
2018-07-20T01:10:44.919Z,0
2018-07-20T01:11:45.437Z,0
2018-07-20T01:12:45.156Z,0
2018-07-20T01:13:45.158Z,0
2018-07-20T01:14:44.891Z,0
2018-07-20T01:15:45.418Z,0
2018-07-20T01:16:45.392Z,0
2018-07-20T01:17:45.137Z,0
2018-07-20T01:18:45.123Z,0
2018-07-20T01:19:45.119Z,0
2018-07-20T01:20:45.115Z,0
2018-07-20T01:21:45.359Z,0
2018-07-20T01:22:45.355Z,0
2018-07-20T01:23:45.341Z,0
2018-07-20T01:24:45.341Z,0
2018-07-20T01:25:45.329Z,0
2018-07-20T01:26:45.335Z,0
2018-07-20T01:27:45.338Z,0
2018-07-20T01:28:45.064Z,0
2018-07-20T01:29:45.059Z,0
2018-07-20T01:30:45.305Z,0
2018-07-20T01:31:45.304Z,0
2018-07-20T01:32:45.041Z,0
2018-07-20T01:33:44.782Z,0
2018-07-20T01:34:45.280Z,0
2018-07-20T01:35:45.039Z,0
2018-07-20T01:36:45.272Z,0
2018-07-20T01:37:45.266Z,0
2018-07-20T01:38:45.258Z,0
2018-07-20T01:39:45.018Z,0
2018-07-20T01:40:45.245Z,0
2018-07-20T01:41:45.242Z,0
2018-07-20T01:42:45.234Z,0
2018-07-20T01:43:45.234Z,0
2018-07-20T01:44:44.969Z,0
2018-07-20T01:45:44.712Z,0
2018-07-20T01:46:45.217Z,0
2018-07-20T01:47:45.262Z,0
2018-07-20T01:48:45.203Z,0
2018-07-20T01:49:44.950Z,0
2018-07-20T01:50:44.941Z,0
2018-07-20T01:51:44.685Z,0
2018-07-20T01:52:45.180Z,0
2018-07-20T01:53:45.175Z,0
2018-07-20T01:54:45.165Z,0
2018-07-20T01:55:44.912Z,0
2018-07-20T01:56:44.652Z,0
2018-07-20T01:57:45.151Z,0
2018-07-20T01:58:45.148Z,0
2018-07-20T01:59:44.883Z,0
2018-07-20T02:00:44.880Z,0
2018-07-20T02:01:45.123Z,0
2018-07-20T02:02:45.126Z,0
2018-07-20T02:03:45.112Z,0
2018-07-20T02:04:45.109Z,0
2018-07-20T02:05:45.100Z,0
2018-07-20T02:06:45.103Z,0
2018-07-20T02:07:44.836Z,0
2018-07-20T02:08:45.088Z,0
2018-07-20T02:09:45.078Z,0
2018-07-20T02:10:45.077Z,0
2018-07-20T02:11:44.817Z,0
2018-07-20T02:12:45.059Z,0
2018-07-20T02:13:45.052Z,0
2018-07-20T02:14:44.796Z,0
2018-07-20T02:15:44.796Z,0
2018-07-20T02:16:44.790Z,0
2018-07-20T02:17:45.027Z,0
2018-07-20T02:18:44.772Z,0
2018-07-20T02:19:45.015Z,0
2018-07-20T02:20:44.764Z,0
2018-07-20T02:21:44.757Z,0
2018-07-20T02:22:45.004Z,0
2018-07-20T02:23:45.002Z,0
2018-07-20T02:24:44.735Z,0
2018-07-20T02:25:44.990Z,0
2018-07-20T02:26:44.983Z,0
2018-07-20T02:27:44.471Z,0
2018-07-20T02:28:44.720Z,0
2018-07-20T02:29:45.132Z,0
2018-07-20T02:30:44.207Z,0
2018-07-20T02:31:44.712Z,0
2018-07-20T02:32:44.944Z,0
2018-07-20T02:33:44.432Z,0
2018-07-20T02:34:44.677Z,0
2018-07-20T02:35:44.934Z,0
2018-07-20T02:36:44.925Z,0
2018-07-20T02:37:44.410Z,0
2018-07-20T02:38:44.905Z,0
2018-07-20T02:39:44.663Z,0
2018-07-20T02:40:44.896Z,0
2018-07-20T02:41:44.891Z,0
2018-07-20T02:42:44.885Z,0
2018-07-20T02:43:44.657Z,0
2018-07-20T02:44:44.875Z,0
2018-07-20T02:45:44.869Z,0
2018-07-20T02:46:44.608Z,0
2018-07-20T02:47:44.874Z,0
2018-07-20T02:48:44.600Z,0
2018-07-20T02:49:44.849Z,0
2018-07-20T02:50:44.598Z,0
2018-07-20T02:51:44.578Z,0
2018-07-20T02:52:44.582Z,0
2018-07-20T02:53:44.568Z,0
2018-07-20T02:54:44.554Z,0
2018-07-20T02:55:44.548Z,5
2018-07-20T02:56:44.803Z,5
2018-07-20T02:57:44.283Z,5
2018-07-20T02:58:44.794Z,5
2018-07-20T02:59:44.534Z,5
2018-07-20T03:00:44.779Z,5
2018-07-20T03:01:44.769Z,5
2018-07-20T03:02:44.508Z,5
2018-07-20T03:03:44.537Z,5
2018-07-20T03:04:44.498Z,10
2018-07-20T03:05:44.486Z,10
2018-07-20T03:06:44.480Z,10
2018-07-20T03:07:44.724Z,10
2018-07-20T03:08:44.757Z,10
2018-07-20T03:09:44.726Z,15
2018-07-20T03:10:44.708Z,15
2018-07-20T03:11:44.452Z,15
2018-07-20T03:12:44.445Z,15
2018-07-20T03:13:44.188Z,20
2018-07-20T03:14:44.437Z,20
2018-07-20T03:15:44.431Z,20
2018-07-20T03:16:44.674Z,25
2018-07-20T03:17:44.161Z,25
2018-07-20T03:18:44.153Z,25
2018-07-20T03:19:44.651Z,25
2018-07-20T03:20:44.650Z,30
2018-07-20T03:21:44.655Z,30
2018-07-20T03:22:44.635Z,30
2018-07-20T03:23:44.391Z,35
2018-07-20T03:24:44.621Z,35
2018-07-20T03:25:44.617Z,40
2018-07-20T03:26:44.606Z,40
2018-07-20T03:27:44.354Z,40
2018-07-20T03:28:44.596Z,45
2018-07-20T03:29:44.609Z,45
2018-07-20T03:30:44.583Z,45
2018-07-20T03:31:44.335Z,50
2018-07-20T03:32:44.587Z,50
2018-07-20T03:33:44.319Z,55
2018-07-20T03:34:44.317Z,55
2018-07-20T03:35:44.055Z,55
2018-07-20T03:36:44.551Z,60
2018-07-20T03:37:44.582Z,60
2018-07-20T03:38:44.543Z,60
2018-07-20T03:39:44.275Z,60
2018-07-20T03:40:44.024Z,65
2018-07-20T03:41:44.519Z,65
2018-07-20T03:42:44.508Z,75
2018-07-20T03:43:44.513Z,80
2018-07-20T03:44:44.504Z,80
2018-07-20T03:45:44.239Z,85
2018-07-20T03:46:44.494Z,90
2018-07-20T03:47:44.229Z,95
2018-07-20T03:48:44.478Z,100
2018-07-20T03:49:44.478Z,100
2018-07-20T03:50:44.214Z,105
2018-07-20T03:51:44.257Z,110
2018-07-20T03:52:43.955Z,115
2018-07-20T03:53:44.460Z,115
2018-07-20T03:54:44.200Z,120
2018-07-20T03:55:44.182Z,125
2018-07-20T03:56:44.431Z,125
2018-07-20T03:57:46.597Z,130
2018-07-20T03:58:44.174Z,135
2018-07-20T03:59:44.434Z,145
2018-07-20T04:00:44.159Z,145
2018-07-20T04:01:44.408Z,145
2018-07-20T04:02:44.152Z,150
2018-07-20T04:03:44.147Z,155
2018-07-20T04:04:43.898Z,165
2018-07-20T04:05:44.139Z,170
2018-07-20T04:06:44.389Z,170
2018-07-20T04:07:43.887Z,175
2018-07-20T04:08:44.387Z,190
2018-07-20T04:09:44.374Z,190
2018-07-20T04:10:44.119Z,195
2018-07-20T04:11:44.114Z,200
2018-07-20T04:12:44.120Z,205
2018-07-20T04:13:44.363Z,210
2018-07-20T04:14:44.380Z,215
2018-07-20T04:15:44.114Z,220
2018-07-20T04:16:44.350Z,225
2018-07-20T04:17:44.108Z,230
2018-07-20T04:18:44.097Z,235
2018-07-20T04:19:44.352Z,240
2018-07-20T04:20:44.339Z,245
2018-07-20T04:21:44.343Z,250
2018-07-20T04:22:44.089Z,255
2018-07-20T04:23:44.340Z,260
2018-07-20T04:24:44.080Z,270
2018-07-20T04:25:44.354Z,270
2018-07-20T04:26:44.082Z,275
2018-07-20T04:27:44.087Z,275
2018-07-20T04:28:44.075Z,290
2018-07-20T04:29:44.339Z,285
2018-07-20T04:30:44.336Z,260
2018-07-20T04:31:44.326Z,265
2018-07-20T04:32:44.330Z,275
2018-07-20T04:33:44.074Z,280
2018-07-20T04:34:44.325Z,280
2018-07-20T04:35:44.332Z,285
2018-07-20T04:36:44.332Z,295
2018-07-20T04:37:44.333Z,300
2018-07-20T04:38:44.080Z,305
2018-07-20T04:39:44.079Z,315
2018-07-20T04:40:44.332Z,325
2018-07-20T04:41:43.832Z,335
2018-07-20T04:42:44.083Z,340
2018-07-20T04:43:44.458Z,345
2018-07-20T04:44:44.339Z,350
2018-07-20T04:45:44.347Z,350
2018-07-20T04:46:44.097Z,350
2018-07-20T04:47:44.359Z,355
2018-07-20T04:48:44.348Z,365
2018-07-20T04:49:44.164Z,380
2018-07-20T04:50:44.364Z,390
2018-07-20T04:51:44.356Z,395
2018-07-20T04:52:44.119Z,400
2018-07-20T04:53:44.389Z,400
2018-07-20T04:54:44.125Z,405
2018-07-20T04:55:44.381Z,415
2018-07-20T04:56:44.380Z,415
2018-07-20T04:57:44.141Z,425
2018-07-20T04:58:44.523Z,430
2018-07-20T04:59:44.406Z,435
2018-07-20T05:00:44.412Z,440
2018-07-20T05:01:44.657Z,440
2018-07-20T05:02:44.413Z,455
2018-07-20T05:03:44.381Z,465
2018-07-20T05:04:44.174Z,475
2018-07-20T05:05:43.682Z,485
2018-07-20T05:06:44.741Z,495
2018-07-20T05:07:44.206Z,505
2018-07-20T05:08:44.452Z,515
2018-07-20T05:09:44.469Z,515
2018-07-20T05:10:44.215Z,525
2018-07-20T05:11:44.490Z,540
2018-07-20T05:12:44.227Z,545
2018-07-20T05:13:44.238Z,555
2018-07-20T05:14:44.251Z,555
2018-07-20T05:15:43.999Z,550
2018-07-20T05:16:44.516Z,555
2018-07-20T05:17:44.531Z,555
2018-07-20T05:18:44.533Z,560
2018-07-20T05:19:44.338Z,560
2018-07-20T05:20:44.541Z,565
2018-07-20T05:21:44.059Z,565
2018-07-20T05:22:44.058Z,570
2018-07-20T05:23:44.341Z,570
2018-07-20T05:24:44.330Z,580
2018-07-20T05:25:44.584Z,590
2018-07-20T05:26:44.339Z,605
2018-07-20T05:27:44.120Z,610
2018-07-20T05:28:44.633Z,620
2018-07-20T05:29:44.126Z,630
2018-07-20T05:30:44.629Z,640
2018-07-20T05:31:44.395Z,635
2018-07-20T05:32:44.719Z,650
2018-07-20T05:33:44.666Z,650
2018-07-20T05:34:44.421Z,660
2018-07-20T05:35:44.675Z,655
2018-07-20T05:36:44.434Z,655
2018-07-20T05:37:44.193Z,660
2018-07-20T05:38:44.229Z,665
2018-07-20T05:39:44.476Z,675
2018-07-20T05:40:44.478Z,690
2018-07-20T05:41:44.742Z,695
2018-07-20T05:42:44.761Z,700
2018-07-20T05:43:44.512Z,705
2018-07-20T05:44:44.801Z,700
2018-07-20T05:45:44.787Z,700
2018-07-20T05:46:44.537Z,710
2018-07-20T05:47:44.812Z,720
2018-07-20T05:48:44.811Z,730
2018-07-20T05:49:44.831Z,750
2018-07-20T05:50:44.843Z,770
2018-07-20T05:51:44.599Z,785
2018-07-20T05:52:44.852Z,795
2018-07-20T05:53:44.866Z,795
2018-07-20T05:54:44.876Z,795
2018-07-20T05:55:44.886Z,795
2018-07-20T05:56:44.652Z,810
2018-07-20T05:57:44.907Z,815
2018-07-20T05:58:44.920Z,820
2018-07-20T05:59:44.691Z,805
2018-07-20T06:00:44.946Z,815
2018-07-20T06:01:44.957Z,835
2018-07-20T06:02:44.464Z,835
2018-07-20T06:03:44.979Z,840
2018-07-20T06:04:44.998Z,855
2018-07-20T06:05:45.464Z,850
2018-07-20T06:06:44.774Z,860
2018-07-20T06:07:45.066Z,875
2018-07-20T06:08:45.045Z,875
2018-07-20T06:09:45.057Z,865
2018-07-20T06:10:44.809Z,880
2018-07-20T06:11:45.075Z,885
2018-07-20T06:12:44.833Z,900
2018-07-20T06:13:45.096Z,890
2018-07-20T06:14:45.106Z,890
2018-07-20T06:15:44.619Z,890
2018-07-20T06:16:45.146Z,900
2018-07-20T06:17:45.169Z,900
2018-07-20T06:18:45.157Z,905
2018-07-20T06:19:45.216Z,920
2018-07-20T06:20:44.950Z,925
2018-07-20T06:21:45.212Z,935
2018-07-20T06:22:45.216Z,955
2018-07-20T06:23:45.182Z,960
2018-07-20T06:24:45.244Z,980
2018-07-20T06:25:45.004Z,990
2018-07-20T06:26:45.268Z,1010
2018-07-20T06:27:45.021Z,1015
2018-07-20T06:28:45.295Z,1015
2018-07-20T06:29:45.329Z,1015
2018-07-20T06:30:45.266Z,1020
2018-07-20T06:31:45.323Z,995
2018-07-20T06:32:45.348Z,1015
2018-07-20T06:33:45.100Z,1045
2018-07-20T06:34:45.115Z,1045
2018-07-20T06:35:45.388Z,1050
2018-07-20T06:36:45.405Z,1050
2018-07-20T06:37:45.417Z,1045
2018-07-20T06:38:45.170Z,1050
2018-07-20T06:39:45.190Z,1055
2018-07-20T06:40:45.389Z,1055
2018-07-20T06:41:44.959Z,1055
2018-07-20T06:42:45.236Z,1050
2018-07-20T06:43:45.240Z,1090
2018-07-20T06:44:45.510Z,1110
2018-07-20T06:45:45.552Z,1120
2018-07-20T06:46:45.035Z,1135
2018-07-20T06:47:45.554Z,1150
2018-07-20T06:48:45.064Z,1140
2018-07-20T06:49:45.424Z,1045
2018-07-20T06:50:45.596Z,1090
2018-07-20T06:51:45.357Z,1115
2018-07-20T06:52:45.624Z,1125
2018-07-20T06:53:45.631Z,1155
2018-07-20T06:54:45.659Z,1160
2018-07-20T06:55:45.414Z,1175
2018-07-20T06:56:45.687Z,1180
2018-07-20T06:57:45.693Z,1175
2018-07-20T06:58:45.455Z,1165
2018-07-20T06:59:45.726Z,1125
2018-07-20T07:00:45.731Z,1165
2018-07-20T07:01:45.494Z,1195
2018-07-20T07:02:45.530Z,1190
2018-07-20T07:03:45.593Z,1095
2018-07-20T07:04:45.289Z,1085
2018-07-20T07:05:45.556Z,1205
2018-07-20T07:06:45.329Z,1240
2018-07-20T07:07:45.588Z,1255
2018-07-20T07:08:45.602Z,1235
2018-07-20T07:09:45.618Z,1200
2018-07-20T07:10:45.887Z,1205
2018-07-20T07:11:45.899Z,1225
2018-07-20T07:12:45.907Z,1250
2018-07-20T07:13:45.919Z,1280
2018-07-20T07:14:45.706Z,1265
2018-07-20T07:15:45.956Z,1245
2018-07-20T07:16:45.972Z,1300
2018-07-20T07:17:45.989Z,1300
2018-07-20T07:18:46.063Z,1305
2018-07-20T07:19:46.015Z,1320
2018-07-20T07:20:45.776Z,1340
2018-07-20T07:21:45.803Z,1335
2018-07-20T07:22:46.130Z,1320
2018-07-20T07:23:46.554Z,1350
2018-07-20T07:24:45.845Z,1350
2018-07-20T07:25:46.105Z,1365
2018-07-20T07:26:46.110Z,1345
2018-07-20T07:27:46.149Z,1365
2018-07-20T07:28:46.140Z,1345
2018-07-20T07:29:46.162Z,1350
2018-07-20T07:30:46.171Z,1370
2018-07-20T07:31:45.700Z,1380
2018-07-20T07:32:45.708Z,1375
2018-07-20T07:33:47.492Z,1405
2018-07-20T07:34:45.978Z,1390
2018-07-20T07:35:45.796Z,1390
2018-07-20T07:36:46.264Z,1400
2018-07-20T07:37:46.289Z,1405
2018-07-20T07:38:46.041Z,1405
2018-07-20T07:39:46.067Z,1410
2018-07-20T07:40:46.066Z,1430
2018-07-20T07:41:45.845Z,1405
2018-07-20T07:42:46.146Z,1395
2018-07-20T07:43:46.118Z,1460
2018-07-20T07:44:46.388Z,1465
2018-07-20T07:45:46.161Z,1470
2018-07-20T07:46:45.905Z,1480
2018-07-20T07:47:46.175Z,1495
2018-07-20T07:48:46.205Z,1500
2018-07-20T07:49:46.452Z,1485
2018-07-20T07:50:46.216Z,1475
2018-07-20T07:51:46.483Z,1475
2018-07-20T07:52:46.512Z,1510
2018-07-20T07:53:46.519Z,1515
2018-07-20T07:54:46.574Z,1535
2018-07-20T07:55:46.046Z,1555
2018-07-20T07:56:46.305Z,1580
2018-07-20T07:57:46.318Z,1605
2018-07-20T07:58:46.601Z,1600
2018-07-20T07:59:46.367Z,1640
2018-07-20T08:00:46.626Z,1600
2018-07-20T08:01:46.655Z,745
2018-07-20T08:02:46.397Z,1005
2018-07-20T08:03:46.845Z,1660
2018-07-20T08:04:46.684Z,1645
2018-07-20T08:05:46.725Z,1065
2018-07-20T08:06:46.216Z,710
2018-07-20T08:07:46.478Z,860
2018-07-20T08:08:46.788Z,755
2018-07-20T08:09:46.972Z,1465
2018-07-20T08:10:46.528Z,1530
2018-07-20T08:11:46.790Z,1530
2018-07-20T08:12:46.292Z,1555
2018-07-20T08:13:46.564Z,1520
2018-07-20T08:14:46.570Z,1555
2018-07-20T08:15:47.038Z,1515
2018-07-20T08:16:46.850Z,1590
2018-07-20T08:17:46.861Z,1585
2018-07-20T08:18:46.900Z,1615
2018-07-20T08:19:46.399Z,1640
2018-07-20T08:20:46.910Z,1650
2018-07-20T08:21:46.693Z,1725
2018-07-20T08:22:46.729Z,1785
2018-07-20T08:23:46.448Z,1780
2018-07-20T08:24:46.980Z,1770
2018-07-20T08:25:46.983Z,1635
2018-07-20T08:26:46.994Z,625
2018-07-20T08:27:46.752Z,655
2018-07-20T08:28:46.766Z,595
2018-07-20T08:29:47.029Z,650
2018-07-20T08:30:47.059Z,725
2018-07-20T08:31:47.058Z,1555
2018-07-20T08:32:47.083Z,1595
2018-07-20T08:33:47.087Z,1655
2018-07-20T08:34:47.174Z,1640
2018-07-20T08:35:46.619Z,1635
2018-07-20T08:36:47.134Z,1665
2018-07-20T08:37:47.129Z,1670
2018-07-20T08:38:47.167Z,1685
2018-07-20T08:39:47.172Z,1705
2018-07-20T08:40:47.196Z,1700
2018-07-20T08:41:46.944Z,1690
2018-07-20T08:42:47.205Z,1735
2018-07-20T08:43:47.215Z,1745
2018-07-20T08:44:46.736Z,1735
2018-07-20T08:45:47.237Z,1765
2018-07-20T08:46:47.529Z,1760
2018-07-20T08:47:47.287Z,1780
2018-07-20T08:48:47.025Z,1790
2018-07-20T08:49:46.539Z,1745
2018-07-20T08:50:47.057Z,1715
2018-07-20T08:51:47.083Z,1675
2018-07-20T08:52:47.349Z,1660
2018-07-20T08:53:47.375Z,1675
2018-07-20T08:54:47.113Z,1700
2018-07-20T08:55:47.389Z,1715
2018-07-20T08:56:47.136Z,1440
2018-07-20T08:57:46.897Z,815
2018-07-20T08:58:48.016Z,490
2018-07-20T08:59:47.434Z,480
2018-07-20T09:00:47.456Z,475
2018-07-20T09:01:47.469Z,470
2018-07-20T09:02:47.478Z,460
2018-07-20T09:03:47.907Z,455
2018-07-20T09:04:47.550Z,450
2018-07-20T09:05:47.509Z,445
2018-07-20T09:06:47.007Z,445
2018-07-20T09:07:47.553Z,440
2018-07-20T09:08:47.295Z,440
2018-07-20T09:09:47.296Z,440
2018-07-20T09:10:47.572Z,435
2018-07-20T09:11:47.310Z,435
2018-07-20T09:12:47.576Z,430
2018-07-20T09:13:48.441Z,435
2018-07-20T09:14:47.599Z,435
2018-07-20T09:15:47.355Z,435
2018-07-20T09:16:47.363Z,435
2018-07-20T09:17:47.384Z,435
2018-07-20T09:18:47.637Z,435
2018-07-20T09:19:47.391Z,435
2018-07-20T09:20:48.452Z,430
2018-07-20T09:21:47.405Z,430
2018-07-20T09:22:47.676Z,435
2018-07-20T09:23:47.672Z,435
2018-07-20T09:24:47.464Z,430
2018-07-20T09:25:47.444Z,425
2018-07-20T09:26:47.194Z,420
2018-07-20T09:27:47.449Z,415
2018-07-20T09:28:47.709Z,415
2018-07-20T09:29:47.470Z,415
2018-07-20T09:30:47.233Z,415
2018-07-20T09:31:47.735Z,415
2018-07-20T09:32:47.489Z,420
2018-07-20T09:33:47.239Z,425
2018-07-20T09:34:47.506Z,425
2018-07-20T09:35:47.759Z,415
2018-07-20T09:36:48.162Z,410
2018-07-20T09:37:47.273Z,410
2018-07-20T09:38:47.773Z,410
2018-07-20T09:39:47.847Z,405
2018-07-20T09:40:47.543Z,400
2018-07-20T09:41:47.558Z,410
2018-07-20T09:42:47.979Z,410
2018-07-20T09:43:47.800Z,410
2018-07-20T09:44:47.825Z,410
2018-07-20T09:45:47.563Z,410
2018-07-20T09:46:47.586Z,410
2018-07-20T09:47:47.825Z,410
2018-07-20T09:48:47.589Z,400
2018-07-20T09:49:47.837Z,395
2018-07-20T09:50:47.589Z,390
2018-07-20T09:51:47.602Z,385
2018-07-20T09:52:47.597Z,380
2018-07-20T09:53:47.615Z,380
2018-07-20T09:54:47.873Z,380
2018-07-20T09:55:47.913Z,380
2018-07-20T09:56:47.868Z,380
2018-07-20T09:57:47.378Z,380
2018-07-20T09:58:47.633Z,375
2018-07-20T09:59:48.198Z,375
2018-07-20T10:00:47.640Z,375
2018-07-20T10:01:47.893Z,375
2018-07-20T10:02:47.906Z,380
2018-07-20T10:03:47.650Z,370
2018-07-20T10:04:47.909Z,370
2018-07-20T10:05:47.158Z,370
2018-07-20T10:06:47.932Z,370
2018-07-20T10:07:47.973Z,365
2018-07-20T10:08:47.698Z,365
2018-07-20T10:09:47.680Z,365
2018-07-20T10:10:47.937Z,365
2018-07-20T10:11:47.442Z,365
2018-07-20T10:12:48.224Z,360
2018-07-20T10:13:47.697Z,360
2018-07-20T10:14:47.448Z,360
2018-07-20T10:15:47.711Z,365
2018-07-20T10:16:48.019Z,360
2018-07-20T10:17:47.981Z,355
2018-07-20T10:18:47.739Z,350
2018-07-20T10:19:47.748Z,350
2018-07-20T10:20:48.007Z,350
2018-07-20T10:21:48.007Z,350
2018-07-20T10:22:47.771Z,350
2018-07-20T10:23:47.742Z,355
2018-07-20T10:24:47.997Z,355
2018-07-20T10:25:47.741Z,350
2018-07-20T10:26:47.779Z,345
2018-07-20T10:27:47.775Z,345
2018-07-20T10:28:47.791Z,345
2018-07-20T10:29:48.018Z,345
2018-07-20T10:30:48.307Z,340
2018-07-20T10:31:47.781Z,340
2018-07-20T10:32:47.779Z,340
2018-07-20T10:33:47.779Z,340
2018-07-20T10:34:48.047Z,340
2018-07-20T10:35:47.792Z,340
2018-07-20T10:36:48.371Z,335
2018-07-20T10:37:47.807Z,335
2018-07-20T10:38:47.552Z,345
2018-07-20T10:39:47.578Z,340
2018-07-20T10:40:47.571Z,345
2018-07-20T10:41:48.064Z,345
2018-07-20T10:42:48.067Z,345
2018-07-20T10:43:47.569Z,340
2018-07-20T10:44:47.570Z,340
2018-07-20T10:45:47.840Z,340
2018-07-20T10:46:47.586Z,340
2018-07-20T10:47:48.088Z,345
2018-07-20T10:48:47.845Z,340
2018-07-20T10:49:48.107Z,340
2018-07-20T10:50:48.117Z,340
2018-07-20T10:51:48.309Z,335
2018-07-20T10:52:47.612Z,335
2018-07-20T10:53:48.127Z,330
2018-07-20T10:54:47.878Z,330
2018-07-20T10:55:48.117Z,330
2018-07-20T10:56:47.876Z,330
2018-07-20T10:57:48.084Z,330
2018-07-20T10:58:47.884Z,330
2018-07-20T10:59:47.900Z,335
2018-07-20T11:00:47.886Z,330
2018-07-20T11:01:48.553Z,330
2018-07-20T11:02:47.651Z,330
2018-07-20T11:03:47.899Z,330
2018-07-20T11:04:47.915Z,335
2018-07-20T11:05:48.159Z,325
2018-07-20T11:06:47.910Z,325
2018-07-20T11:07:47.923Z,325
2018-07-20T11:08:47.667Z,325
2018-07-20T11:09:48.199Z,330
2018-07-20T11:10:48.193Z,330
2018-07-20T11:11:47.969Z,330
2018-07-20T11:12:47.944Z,330
2018-07-20T11:13:48.473Z,330
2018-07-20T11:14:47.961Z,325
2018-07-20T11:15:48.214Z,325
2018-07-20T11:16:48.413Z,325
2018-07-20T11:17:48.206Z,325
2018-07-20T11:18:48.224Z,325
2018-07-20T11:19:47.962Z,325
2018-07-20T11:20:48.242Z,325
2018-07-20T11:21:47.968Z,320
2018-07-20T11:22:48.223Z,320
2018-07-20T11:23:47.501Z,310
2018-07-20T11:24:47.995Z,310
2018-07-20T11:25:48.020Z,320
2018-07-20T11:26:47.992Z,320
2018-07-20T11:27:48.058Z,320
2018-07-20T11:28:48.004Z,330
2018-07-20T11:29:48.252Z,355
2018-07-20T11:30:47.813Z,365
2018-07-20T11:31:48.281Z,370
2018-07-20T11:32:48.277Z,380
2018-07-20T11:33:48.299Z,390
2018-07-20T11:34:47.961Z,400
2018-07-20T11:35:48.284Z,415
2018-07-20T11:36:47.793Z,440
2018-07-20T11:37:48.296Z,460
2018-07-20T11:38:48.290Z,490
2018-07-20T11:39:48.295Z,505
2018-07-20T11:40:48.046Z,510
2018-07-20T11:41:48.399Z,520
2018-07-20T11:42:48.322Z,525
2018-07-20T11:43:48.065Z,530
2018-07-20T11:44:48.331Z,535
2018-07-20T11:45:47.829Z,545
2018-07-20T11:46:47.846Z,540
2018-07-20T11:47:48.046Z,520
2018-07-20T11:48:47.864Z,500
2018-07-20T11:49:48.097Z,485
2018-07-20T11:50:47.842Z,475
2018-07-20T11:51:48.120Z,480
2018-07-20T11:52:48.371Z,485
2018-07-20T11:53:48.106Z,490
2018-07-20T11:54:48.375Z,485
2018-07-20T11:55:48.371Z,460
2018-07-20T11:56:48.138Z,425
2018-07-20T11:57:47.888Z,415
2018-07-20T11:58:48.819Z,425
2018-07-20T11:59:48.405Z,440
2018-07-20T12:00:48.428Z,450
2018-07-20T12:01:48.494Z,460
2018-07-20T12:02:48.184Z,460
2018-07-20T12:03:48.442Z,455
2018-07-20T12:04:47.668Z,450
2018-07-20T12:05:48.441Z,455
2018-07-20T12:06:48.207Z,470
2018-07-20T12:07:48.481Z,475
2018-07-20T12:08:48.452Z,470
2018-07-20T12:09:48.446Z,460
2018-07-20T12:10:48.455Z,455
2018-07-20T12:11:48.457Z,460
2018-07-20T12:12:48.210Z,455
2018-07-20T12:13:48.480Z,435
2018-07-20T12:14:48.475Z,435
2018-07-20T12:15:48.512Z,420
2018-07-20T12:16:48.503Z,425
2018-07-20T12:17:48.505Z,420
2018-07-20T12:18:48.294Z,425
2018-07-20T12:19:48.512Z,420
2018-07-20T12:20:48.532Z,415
2018-07-20T12:21:48.530Z,405
2018-07-20T12:22:48.039Z,400
2018-07-20T12:23:48.286Z,390
2018-07-20T12:24:48.539Z,385
2018-07-20T12:25:48.569Z,380
2018-07-20T12:26:48.324Z,380
2018-07-20T12:27:48.578Z,370
2018-07-20T12:28:48.341Z,370
2018-07-20T12:29:48.576Z,380
2018-07-20T12:30:48.332Z,395
2018-07-20T12:31:48.087Z,400
2018-07-20T12:32:47.834Z,405
2018-07-20T12:33:48.342Z,420
2018-07-20T12:34:48.142Z,425
2018-07-20T12:35:48.370Z,405
2018-07-20T12:36:48.363Z,390
2018-07-20T12:37:48.625Z,395
2018-07-20T12:38:48.628Z,415
2018-07-20T12:39:48.127Z,430
2018-07-20T12:40:48.635Z,440
2018-07-20T12:41:48.651Z,445
2018-07-20T12:42:48.857Z,440
2018-07-20T12:43:48.414Z,435
2018-07-20T12:44:48.662Z,410
2018-07-20T12:45:48.714Z,405
2018-07-20T12:46:48.723Z,410
2018-07-20T12:47:48.692Z,400
2018-07-20T12:48:48.448Z,380
2018-07-20T12:49:48.695Z,360
2018-07-20T12:50:48.702Z,335
2018-07-20T12:51:48.713Z,315
2018-07-20T12:52:48.717Z,290
2018-07-20T12:53:48.728Z,280
2018-07-20T12:54:48.226Z,270
2018-07-20T12:55:48.723Z,270
2018-07-20T12:56:48.496Z,275
2018-07-20T12:57:48.752Z,270
2018-07-20T12:58:49.519Z,270
2018-07-20T12:59:48.779Z,270
2018-07-20T13:00:48.017Z,275
2018-07-20T13:01:48.512Z,275
2018-07-20T13:02:48.561Z,285
2018-07-20T13:03:48.805Z,300
2018-07-20T13:04:48.811Z,305
2018-07-20T13:05:48.526Z,315
2018-07-20T13:06:48.562Z,320
2018-07-20T13:07:48.535Z,310
2018-07-20T13:08:48.819Z,310
2018-07-20T13:09:48.559Z,320
2018-07-20T13:10:48.570Z,340
2018-07-20T13:11:48.389Z,355
2018-07-20T13:12:48.821Z,365
2018-07-20T13:13:48.573Z,365
2018-07-20T13:14:48.836Z,350
2018-07-20T13:15:48.568Z,335
2018-07-20T13:16:48.577Z,325
2018-07-20T13:17:48.865Z,325
2018-07-20T13:18:48.585Z,325
2018-07-20T13:19:48.585Z,335
2018-07-20T13:20:48.875Z,335
2018-07-20T13:21:48.612Z,320
2018-07-20T13:22:48.863Z,320
2018-07-20T13:23:49.072Z,315
2018-07-20T13:24:48.911Z,315
2018-07-20T13:25:48.867Z,295
2018-07-20T13:26:48.873Z,275
2018-07-20T13:27:48.882Z,265
2018-07-20T13:28:48.886Z,260
2018-07-20T13:29:48.885Z,250
2018-07-20T13:30:48.900Z,250
2018-07-20T13:31:48.638Z,245
2018-07-20T13:32:48.897Z,240
2018-07-20T13:33:48.931Z,250
2018-07-20T13:34:48.647Z,260
2018-07-20T13:35:48.660Z,255
2018-07-20T13:36:48.907Z,245
2018-07-20T13:37:48.918Z,260
2018-07-20T13:38:48.962Z,270
2018-07-20T13:39:48.739Z,270
2018-07-20T13:40:48.430Z,270
2018-07-20T13:41:48.940Z,275
2018-07-20T13:42:48.681Z,275
2018-07-20T13:43:48.682Z,275
2018-07-20T13:44:48.971Z,265
2018-07-20T13:45:48.944Z,255
2018-07-20T13:46:48.467Z,255
2018-07-20T13:47:48.710Z,250
2018-07-20T13:48:48.474Z,240
2018-07-20T13:49:48.717Z,235
2018-07-20T13:50:48.465Z,230
2018-07-20T13:51:48.963Z,230
2018-07-20T13:52:49.609Z,230
2018-07-20T13:53:48.976Z,230
2018-07-20T13:54:49.059Z,230
2018-07-20T13:55:48.727Z,230